Aérodrome :
LOGIN :

S'inscrire | Disclaimer

   EN    FR    IT 

 










Légende :    VFR   VFR Marginal   IFR   IFR Intensif   IFR Très Intensif
Visi : 
Plafond : 
>= 8 km
>= 3000ft
5 à 8 km
1000 à 3000 ft
1500m à 5 km
500 à 1000 ft
800 à 1500m
200 à 500 ft
< 800m
< 200 ft
Symboles :   Orages  Brouillard  Fortes neiges  Fortes précipitations  Vent > 20 kt
SIGMETs :   Divers  Orages  Givrage  Turbulence  Onde Orograph.  Cendres Volcan.







- Altitude de l'aérodrome : 202 ft
- Code IATA : LGW
- Voir les cartes d'approche


EGKK - London Gatwick

DERNIER METAR :
  • 152320Z 21006KT 9999 FEW040 08/05 Q1004

METARs EXPIRÉS :
  • 152250Z 21006KT 9999 FEW040 08/06 Q1004
  • 152220Z 22009KT 9999 FEW026 08/07 Q1003
  • 152150Z 22008KT 8000 FEW026 09/07 Q1003
  • 152120Z 22007KT 8000 SCT020 09/07 Q1003
  • 152050Z AUTO 18004KT 140V200 9000 FEW009/// BKN022/// BKN027/// 09/08 Q1002
  • 152020Z 19007KT 9000 SCT007 SCT021 BKN028 09/08 Q1002 REDZ

TAF TAF EGKK
Valide du 15 à 18h jusqu'au 17 à 00h UTC


151652Z 1518/1624 14014KT 6000 -RA BKN007
TEMPO 1518/1521 3000 RA BKN004
PROB30
TEMPO 1518/1521 14018G28KT +RA
BECMG 1519/1521 25010KT 9999 NSW FEW025
PROB30
TEMPO 1521/1601 8000
BECMG 1601/1604 5000 BR
PROB30 1602/1610 0300 FG VV///
BECMG 1609/1612 19010KT 9999
TEMPO 1618/1621 4000 SHRA BKN013
BECMG 1621/1624 27006KT
Pas de NOTAMs connus pour ce terrain.
3 SIGMETs publiés pour la FIR London (EGTT) :
 
Turbulence forte
EGTT SIGMET 17 VALID 152300/160230 EGRR
EGTT LONDON FIR SEV TURB FCST WI N5500 W00530 - N5500 E00500 - N5403 E00411 - N5257 W00316 - N5424 W00530 - N5500 W00530 SFC/FL060 MOV NE 20KT NC=
Givrage fort
EGTT SIGMET 16 VALID 152230/160230 EGRR
EGTT LONDON FIR SEV ICE FCST WI N5350 E00316 - N5323 E00148 - N5500 W00012 - N5500 E00203 - N5350 E00316 FL030/080 MOV NE 15KT WKN=
Onde orographique forte
EGTT SIGMET 15 VALID 152000/152300 EGRR
EGTT LONDON FIR SEV MTW FCST WI N5500 W00128 - N5144 W00236 - N5154 W00504 - N5427 W00341 - N5500 W00434 - N5500 W00128 FL030/250 STNR WKN=



MET'MAP, la Météo Aéronautique d'un coup d'oeil ! - Copyright ORBIFLY Décembre 2007 - Disclaimer

ORBIFLY MET'MAP TEAM :

Programmation & Développement : Alexandra Zaïnal
Conception & Développement : Baudouin d'Aumeries
Co-Programmation & Développement : Marc-Olivier Méhu
Soutien technique & logistique : Manuel Goepfert

Contact : metmap@orbifly.com




SOURCES & CREDITS :

   NOAA